Time;durP1;ratioP1;P1;durP2;ratioP2;P2;SDS_P1;SDS_P2;PMS_P1;PMS_P2;Temp;Humidity;BMP_temperature;BMP_pressure;BME280_temperature;BME280_humidity;BME280_pressure;Samples;Min_cycle;Max_cycle;Signal;HPM_P1;HPM_P2
2023/06/03 00:02:14;;;;;;;;;;;;;;;19.44;56.76;99459.94;4493207;31;34209;-78
2023/06/03 00:04:43;;;;;;;;;;;;;;;19.55;56.67;99467.28;4477623;31;33682;-79
2023/06/03 00:07:11;;;;;;;;;;;;;;;19.51;57.19;99463.09;4485345;31;34200;-79
2023/06/03 00:09:40;;;;;;;;;;;;;;;19.39;57.44;99468.06;4488303;31;33903;-77
2023/06/03 00:12:10;;;;;;;;;;;;;;;19.45;57.38;99474.81;4492395;31;33828;-79
2023/06/03 00:14:38;;;;;;;;;;;;;;;19.19;58.07;99471.75;4498381;31;35060;-79
2023/06/03 00:17:07;;;;;;;;;;;;;;;19.26;57.83;99476.72;4487221;31;33927;-80
2023/06/03 00:19:36;;;;;;;;;;;;;;;19.39;56.60;99478.59;4493525;31;33134;-78
2023/06/03 00:22:06;;;;;;;;;;;;;;;19.39;56.64;99480.38;4491781;31;33810;-79
2023/06/03 00:24:35;;;;;;;;;;;;;;;19.19;57.58;99487.53;4497331;31;35689;-78
2023/06/03 00:27:04;;;;;;;;;;;;;;;19.19;56.48;99487.53;4492007;31;34120;-79
2023/06/03 00:29:34;;;;;;;;;;;;;;;19.05;56.98;99487.41;4491855;31;33441;-78
2023/06/03 00:32:03;;;;;;;;;;;;;;;19.12;56.78;99485.31;4485801;31;33940;-78
2023/06/03 00:34:32;;;;;;;;;;;;;;;19.02;57.38;99491.97;4476747;32;34340;-79
2023/06/03 00:37:01;;;;;;;;;;;;;;;19.18;55.94;99484.97;4481989;32;34183;-78
2023/06/03 00:39:30;;;;;;;;;;;;;;;19.13;56.04;99490.47;4477914;31;32900;-80
2023/06/03 00:42:01;;;;;;;;;;;;;;;19.20;55.82;99498.91;4492149;31;34540;-78
2023/06/03 00:44:30;;;;;;;;;;;;;;;19.00;56.32;99502.56;4492233;31;34057;-80
2023/06/03 00:47:00;;;;;;;;;;;;;;;19.14;56.11;99505.34;4496415;31;33882;-77
2023/06/03 00:49:29;;;;;;;;;;;;;;;19.03;56.68;99501.56;4476726;32;33885;-80
2023/06/03 00:51:58;;;;;;;;;;;;;;;19.22;55.99;99502.31;4479335;31;34560;-79
2023/06/03 00:54:27;;;;;;;;;;;;;;;19.01;56.58;99506.03;4492016;31;34871;-78
2023/06/03 00:56:56;;;;;;;;;;;;;;;18.67;57.66;99508.53;4497884;31;34785;-80
2023/06/03 00:59:25;;;;;;;;;;;;;;;18.99;57.14;99508.72;4496454;31;33084;-79
2023/06/03 01:01:54;;;;;;;;;;;;;;;18.94;57.32;99505.47;4476585;32;34461;-79
2023/06/03 01:04:26;;;;;;;;;;;;;;;19.00;57.54;99499.09;4488374;31;34693;-79
2023/06/03 01:07:01;;;;;;;;;;;;;;;18.90;57.96;99498.69;4491597;31;34185;-79
2023/06/03 01:09:33;;;;;;;;;;;;;;;18.80;58.49;99503.56;4496866;31;34162;-77
2023/06/03 01:12:04;;;;;;;;;;;;;;;18.80;58.41;99500.06;4491022;31;34298;-80
2023/06/03 01:14:33;;;;;;;;;;;;;;;18.87;58.34;99501.47;4490985;31;33997;-80
2023/06/03 01:17:09;;;;;;;;;;;;;;;18.65;58.68;99497.28;4491544;31;33480;-78
2023/06/03 01:19:47;;;;;;;;;;;;;;;18.63;58.82;99498.25;4492042;31;32434;-79
2023/06/03 01:22:17;;;;;;;;;;;;;;;18.62;59.13;99492.16;4497254;31;34226;-80
2023/06/03 01:24:48;;;;;;;;;;;;;;;18.71;58.66;99501.38;4484783;31;34200;-78
2023/06/03 01:27:17;;;;;;;;;;;;;;;18.68;58.63;99509.41;4491768;31;33785;-78
2023/06/03 01:29:46;;;;;;;;;;;;;;;18.65;58.65;99512.16;4491298;31;32860;-78
2023/06/03 01:32:17;;;;;;;;;;;;;;;18.59;59.30;99510.69;4496649;31;33748;-78
2023/06/03 01:34:47;;;;;;;;;;;;;;;18.28;60.14;99509.53;4494200;31;34224;-77
2023/06/03 01:37:15;;;;;;;;;;;;;;;18.33;59.98;99501.44;4493296;31;33772;-80
2023/06/03 01:39:44;;;;;;;;;;;;;;;18.28;60.01;99509.53;4493731;31;33215;-80
2023/06/03 01:42:15;;;;;;;;;;;;;;;18.29;60.06;99513.00;4494325;31;33647;-79
2023/06/03 01:44:44;;;;;;;;;;;;;;;18.07;60.28;99510.56;4483334;31;35668;-80
2023/06/03 01:47:13;;;;;;;;;;;;;;;18.34;59.79;99514.53;4477910;31;34145;-80
2023/06/03 01:49:42;;;;;;;;;;;;;;;18.22;59.93;99507.22;4477903;32;33780;-79
2023/06/03 01:52:10;;;;;;;;;;;;;;;18.20;59.78;99514.31;4490085;31;33802;-79
2023/06/03 01:54:39;;;;;;;;;;;;;;;18.23;59.19;99511.53;4498996;31;34647;-79
2023/06/03 01:57:09;;;;;;;;;;;;;;;18.22;58.98;99519.47;4494035;31;33543;-80
2023/06/03 01:59:40;;;;;;;;;;;;;;;18.12;59.43;99521.69;4493766;31;32991;-80
2023/06/03 02:02:08;;;;;;;;;;;;;;;18.20;58.81;99518.72;4493624;31;33599;-78
2023/06/03 02:04:37;;;;;;;;;;;;;;;18.19;58.62;99530.97;4493112;31;34888;-78
2023/06/03 02:07:08;;;;;;;;;;;;;;;18.16;58.52;99528.50;4496347;31;34101;-79
2023/06/03 02:09:37;;;;;;;;;;;;;;;18.06;59.05;99537.75;4477745;32;33404;-78
2023/06/03 02:12:06;;;;;;;;;;;;;;;18.04;58.98;99526.47;4482073;31;33787;-80
2023/06/03 02:14:36;;;;;;;;;;;;;;;18.08;58.00;99538.53;4486293;31;34383;-77
2023/06/03 02:17:08;;;;;;;;;;;;;;;18.02;57.49;99539.66;4490237;31;33808;-79
2023/06/03 02:19:37;;;;;;;;;;;;;;;18.10;56.69;99534.06;4477011;32;34144;-79
2023/06/03 02:22:10;;;;;;;;;;;;;;;18.01;56.65;99548.44;4476668;31;33805;-80
2023/06/03 02:24:39;;;;;;;;;;;;;;;17.77;56.56;99541.66;4477432;32;33621;-78
2023/06/03 02:27:09;;;;;;;;;;;;;;;17.87;56.33;99538.56;4486370;31;33749;-79
2023/06/03 02:29:37;;;;;;;;;;;;;;;17.78;56.95;99546.84;4498442;31;33492;-79
2023/06/03 02:32:08;;;;;;;;;;;;;;;17.76;56.19;99547.81;4486953;31;33751;-78
2023/06/03 02:34:37;;;;;;;;;;;;;;;17.76;56.23;99543.44;4485534;31;34922;-80
2023/06/03 02:37:06;;;;;;;;;;;;;;;17.86;56.28;99547.38;4479477;31;33505;-78
2023/06/03 02:39:35;;;;;;;;;;;;;;;17.47;57.47;99555.25;4499130;31;32833;-80
2023/06/03 02:42:04;;;;;;;;;;;;;;;17.79;55.21;99543.31;4493584;31;33919;-77
2023/06/03 02:44:33;;;;;;;;;;;;;;;17.80;54.81;99560.78;4493140;31;34141;-79
2023/06/03 02:47:02;;;;;;;;;;;;;;;17.85;55.03;99563.19;4493297;31;33340;-80
2023/06/03 02:49:32;;;;;;;;;;;;;;;17.95;55.32;99566.25;4493152;31;31699;-80
2023/06/03 02:52:01;;;;;;;;;;;;;;;17.90;54.92;99562.09;4498918;31;33349;-79
2023/06/03 02:54:30;;;;;;;;;;;;;;;17.99;53.89;99562.56;4477341;32;34122;-79
2023/06/03 02:56:58;;;;;;;;;;;;;;;17.88;54.88;99571.78;4488838;31;33885;-78
2023/06/03 02:59:27;;;;;;;;;;;;;;;17.85;55.23;99574.53;4490931;31;33345;-79
2023/06/03 03:01:55;;;;;;;;;;;;;;;17.87;55.53;99574.47;4483118;32;33824;-78
2023/06/03 03:04:26;;;;;;;;;;;;;;;17.64;56.53;99576.31;4476887;31;33672;-79
2023/06/03 03:06:58;;;;;;;;;;;;;;;17.68;56.51;99577.88;4480160;31;34081;-79
2023/06/03 03:09:27;;;;;;;;;;;;;;;17.59;56.94;99582.69;4477419;32;32403;-79
2023/06/03 03:11:56;;;;;;;;;;;;;;;17.70;56.88;99596.19;4488519;31;33924;-79
2023/06/03 03:14:25;;;;;;;;;;;;;;;17.74;57.22;99594.28;4492797;31;34095;-80
2023/06/03 03:16:55;;;;;;;;;;;;;;;17.72;57.66;99594.34;4493271;31;33681;-80
2023/06/03 03:19:25;;;;;;;;;;;;;;;17.46;59.05;99600.72;4493065;31;33027;-78
2023/06/03 03:21:54;;;;;;;;;;;;;;;17.64;58.62;99604.34;4493335;31;35471;-80
2023/06/03 03:24:24;;;;;;;;;;;;;;;17.72;57.63;99596.97;4493517;31;34752;-78
2023/06/03 03:26:53;;;;;;;;;;;;;;;17.75;57.27;99609.94;4493374;31;34672;-78
2023/06/03 03:29:24;;;;;;;;;;;;;;;17.85;56.92;99613.06;4493315;31;33125;-80
2023/06/03 03:31:53;;;;;;;;;;;;;;;17.95;56.18;99610.88;4493102;31;33825;-80
2023/06/03 03:34:23;;;;;;;;;;;;;;;18.02;56.23;99618.38;4498630;31;33761;-79
2023/06/03 03:36:51;;;;;;;;;;;;;;;17.92;56.44;99619.72;4492483;31;34232;-78
2023/06/03 03:39:20;;;;;;;;;;;;;;;17.99;56.01;99622.94;4493333;31;33325;-81
2023/06/03 03:41:51;;;;;;;;;;;;;;;17.91;56.43;99624.12;4483883;31;35578;-78
2023/06/03 03:44:20;;;;;;;;;;;;;;;18.21;55.96;99625.44;4477115;32;35064;-78
2023/06/03 03:46:50;;;;;;;;;;;;;;;18.27;56.37;99639.16;4486825;31;34324;-79
2023/06/03 03:49:19;;;;;;;;;;;;;;;18.14;57.03;99638.00;4492775;31;33332;-79
2023/06/03 03:51:48;;;;;;;;;;;;;;;18.08;56.95;99641.75;4492503;31;33947;-80
2023/06/03 03:54:17;;;;;;;;;;;;;;;18.09;57.08;99645.22;4487028;31;35016;-80
2023/06/03 03:56:46;;;;;;;;;;;;;;;18.42;56.44;99647.25;4491152;31;34766;-79
2023/06/03 03:59:17;;;;;;;;;;;;;;;18.33;56.58;99648.53;4482237;31;33085;-78
2023/06/03 04:01:46;;;;;;;;;;;;;;;18.28;56.83;99650.50;4480211;31;34267;-79
2023/06/03 04:04:17;;;;;;;;;;;;;;;18.43;56.71;99643.69;4483631;31;33482;-79
2023/06/03 04:06:46;;;;;;;;;;;;;;;18.40;56.62;99655.19;4482946;31;34328;-78
2023/06/03 04:09:15;;;;;;;;;;;;;;;18.46;56.49;99657.56;4485419;31;32902;-78
2023/06/03 04:11:44;;;;;;;;;;;;;;;18.50;56.01;99655.63;4477067;32;34088;-80
2023/06/03 04:14:15;;;;;;;;;;;;;;;18.53;56.12;99658.97;4476724;32;35136;-78
2023/06/03 04:16:49;;;;;;;;;;;;;;;18.64;56.48;99662.88;4477064;32;33094;-80
2023/06/03 04:19:20;;;;;;;;;;;;;;;18.81;55.88;99654.22;4492115;31;32615;-79
2023/06/03 04:21:49;;;;;;;;;;;;;;;19.40;54.38;99663.59;4492112;31;33020;-78
2023/06/03 04:24:17;;;;;;;;;;;;;;;20.10;51.68;99664.41;4492851;31;33978;-79
2023/06/03 04:26:47;;;;;;;;;;;;;;;21.25;47.61;99659.88;4482349;31;34017;-81
2023/06/03 04:29:16;;;;;;;;;;;;;;;22.02;45.68;99658.84;4485967;31;33335;-81
2023/06/03 04:31:45;;;;;;;;;;;;;;;22.74;44.29;99661.44;4498042;31;34979;-81
2023/06/03 04:34:15;;;;;;;;;;;;;;;22.99;43.33;99664.22;4485374;31;33724;-80
2023/06/03 04:36:44;;;;;;;;;;;;;;;23.25;40.71;99659.03;4480847;31;34018;-81
2023/06/03 04:39:13;;;;;;;;;;;;;;;23.49;39.96;99661.00;4489563;31;32895;-79
2023/06/03 04:41:42;;;;;;;;;;;;;;;24.45;38.09;99661.41;4495044;31;34816;-78
2023/06/03 04:44:11;;;;;;;;;;;;;;;24.90;38.65;99662.59;4482637;31;34066;-79
2023/06/03 04:46:40;;;;;;;;;;;;;;;25.20;37.86;99666.66;4484988;31;34635;-81
2023/06/03 04:49:09;;;;;;;;;;;;;;;25.55;36.59;99668.44;4483914;31;32953;-79
2023/06/03 04:51:40;;;;;;;;;;;;;;;25.54;36.42;99667.63;4496288;31;34498;-79
2023/06/03 04:54:09;;;;;;;;;;;;;;;25.90;36.10;99679.09;4492303;31;33798;-79
2023/06/03 04:56:39;;;;;;;;;;;;;;;26.14;35.02;99679.00;4475120;31;33980;-79
2023/06/03 04:59:07;;;;;;;;;;;;;;;26.25;34.32;99682.63;4490206;31;33707;-81
2023/06/03 05:01:39;;;;;;;;;;;;;;;26.12;35.00;99680.03;4485863;31;34963;-79
2023/06/03 05:04:08;;;;;;;;;;;;;;;26.04;34.92;99685.12;4496447;31;34256;-80
2023/06/03 05:06:39;;;;;;;;;;;;;;;25.87;33.97;99684.62;4488768;31;33846;-82
2023/06/03 05:09:10;;;;;;;;;;;;;;;25.99;33.94;99689.97;4487027;31;32238;-79
2023/06/03 05:11:39;;;;;;;;;;;;;;;25.71;35.59;99686.75;4478186;32;33765;-79
2023/06/03 05:14:08;;;;;;;;;;;;;;;25.52;34.80;99685.47;4490868;31;35238;-80
2023/06/03 05:16:37;;;;;;;;;;;;;;;25.60;34.47;99690.19;4482494;31;33940;-80
2023/06/03 05:19:06;;;;;;;;;;;;;;;25.61;34.25;99683.06;4490573;31;33276;-79
2023/06/03 05:21:35;;;;;;;;;;;;;;;24.99;36.09;99682.31;4484595;31;35191;-79
2023/06/03 05:24:04;;;;;;;;;;;;;;;24.06;38.02;99685.31;4485162;31;33816;-80
2023/06/03 05:26:36;;;;;;;;;;;;;;;23.53;39.44;99683.66;4484379;31;33076;-79
2023/06/03 05:29:05;;;;;;;;;;;;;;;23.79;37.75;99687.22;4484465;31;33193;-80
2023/06/03 05:31:34;;;;;;;;;;;;;;;24.27;37.67;99690.09;4487752;31;33299;-80
2023/06/03 05:34:03;;;;;;;;;;;;;;;24.45;36.79;99685.28;4482634;31;34453;-79
2023/06/03 05:36:32;;;;;;;;;;;;;;;24.55;36.78;99696.13;4483263;31;34160;-79
2023/06/03 05:39:02;;;;;;;;;;;;;;;24.50;38.21;99707.09;4477988;31;33344;-79
2023/06/03 05:41:30;;;;;;;;;;;;;;;24.54;38.11;99705.03;4495496;31;33479;-81
2023/06/03 05:44:00;;;;;;;;;;;;;;;24.27;38.95;99703.34;4493871;31;33812;-79
2023/06/03 05:46:29;;;;;;;;;;;;;;;24.48;38.33;99704.53;4487667;31;33611;-81
2023/06/03 05:49:16;;;;;;;;;;;;;;;24.36;37.71;99709.81;4483786;32;33451;-80
2023/06/03 05:51:45;;;;;;;;;;;;;;;24.57;36.25;99705.66;4478172;32;34795;-80
2023/06/03 05:54:13;;;;;;;;;;;;;;;24.64;36.99;99706.91;4492849;31;33983;-79
2023/06/03 05:56:42;;;;;;;;;;;;;;;24.67;37.17;99708.53;4478659;31;33976;-79
2023/06/03 05:59:12;;;;;;;;;;;;;;;24.77;36.56;99703.41;4497211;31;32951;-80
2023/06/03 06:01:43;;;;;;;;;;;;;;;23.85;37.36;99711.50;4499279;31;33599;-81
2023/06/03 06:04:12;;;;;;;;;;;;;;;23.31;38.90;99708.91;4492424;31;33802;-79
2023/06/03 06:06:41;;;;;;;;;;;;;;;23.43;37.84;99710.72;4486891;31;34277;-80
2023/06/03 06:09:09;;;;;;;;;;;;;;;22.88;39.16;99709.03;4478725;32;34097;-80
2023/06/03 06:11:39;;;;;;;;;;;;;;;22.35;39.89;99718.53;4484826;31;34937;-79
2023/06/03 06:14:07;;;;;;;;;;;;;;;22.43;40.40;99713.59;4486005;31;34402;-79
2023/06/03 06:16:37;;;;;;;;;;;;;;;22.01;42.33;99715.25;4477970;32;33416;-80
2023/06/03 06:19:07;;;;;;;;;;;;;;;21.37;43.90;99719.84;4490304;31;33051;-79
2023/06/03 06:21:37;;;;;;;;;;;;;;;21.41;43.40;99723.22;4492240;31;34304;-78
2023/06/03 06:24:06;;;;;;;;;;;;;;;20.79;44.71;99717.84;4478520;32;33777;-79
2023/06/03 06:26:36;;;;;;;;;;;;;;;21.17;43.51;99721.00;4477671;32;34055;-78
2023/06/03 06:29:06;;;;;;;;;;;;;;;20.98;44.26;99722.97;4477550;32;31727;-78
2023/06/03 06:31:37;;;;;;;;;;;;;;;21.44;43.90;99723.03;4492263;31;33503;-80
2023/06/03 06:34:07;;;;;;;;;;;;;;;21.86;44.21;99721.44;4493602;31;34804;-81
2023/06/03 06:36:42;;;;;;;;;;;;;;;21.70;43.28;99727.66;4479584;31;33913;-79
2023/06/03 06:39:21;;;;;;;;;;;;;;;21.72;42.83;99730.16;4486971;31;32476;-79
2023/06/03 06:41:50;;;;;;;;;;;;;;;21.94;41.65;99737.72;4481527;31;34683;-80
2023/06/03 06:44:18;;;;;;;;;;;;;;;21.37;44.31;99738.31;4494116;31;34327;-79
2023/06/03 06:46:49;;;;;;;;;;;;;;;20.51;45.92;99739.53;4498246;31;34203;-81
2023/06/03 06:49:18;;;;;;;;;;;;;;;21.39;44.15;99738.25;4493330;31;32383;-79
2023/06/03 06:51:47;;;;;;;;;;;;;;;21.43;43.21;99745.06;4492931;31;34519;-78
2023/06/03 06:54:16;;;;;;;;;;;;;;;21.48;43.62;99743.00;4488428;31;33875;-80
2023/06/03 06:56:45;;;;;;;;;;;;;;;21.74;42.49;99741.50;4498255;31;33581;-80
2023/06/03 06:59:14;;;;;;;;;;;;;;;21.70;43.41;99754.03;4492791;31;33118;-81
2023/06/03 07:01:44;;;;;;;;;;;;;;;21.38;45.63;99744.44;4493926;31;33721;-79
2023/06/03 07:04:17;;;;;;;;;;;;;;;21.37;46.54;99748.87;4489509;31;34018;-79
2023/06/03 07:06:45;;;;;;;;;;;;;;;20.81;47.26;99752.91;4485690;31;33731;-78
2023/06/03 07:09:15;;;;;;;;;;;;;;;20.79;46.39;99750.34;4498719;31;32666;-80
2023/06/03 07:11:44;;;;;;;;;;;;;;;21.36;44.77;99752.47;4491977;31;33805;-79
2023/06/03 07:14:14;;;;;;;;;;;;;;;21.80;44.90;99758.78;4490542;31;33145;-78
2023/06/03 07:16:43;;;;;;;;;;;;;;;21.95;44.37;99755.25;4487622;31;34091;-79
2023/06/03 07:19:13;;;;;;;;;;;;;;;22.11;44.46;99758.69;4483327;32;33734;-80
2023/06/03 07:21:43;;;;;;;;;;;;;;;22.09;42.87;99760.56;4479884;31;33938;-79
2023/06/03 07:24:13;;;;;;;;;;;;;;;22.10;42.61;99762.25;4491282;31;33768;-80
2023/06/03 07:26:42;;;;;;;;;;;;;;;22.50;41.35;99759.88;4488316;31;34491;-79
2023/06/03 07:29:10;;;;;;;;;;;;;;;22.18;41.90;99759.16;4498422;31;33045;-80
2023/06/03 07:31:41;;;;;;;;;;;;;;;21.38;44.57;99763.75;4489314;31;34191;-79
2023/06/03 07:34:20;;;;;;;;;;;;;;;21.73;44.13;99761.78;4487047;31;35049;-81
2023/06/03 07:36:52;;;;;;;;;;;;;;;21.78;42.11;99768.59;4490750;31;33505;-79
2023/06/03 07:39:21;;;;;;;;;;;;;;;22.37;40.45;99770.34;4487746;31;32758;-79
2023/06/03 07:41:51;;;;;;;;;;;;;;;22.12;41.49;99772.72;4498481;31;33858;-79
2023/06/03 07:44:20;;;;;;;;;;;;;;;22.35;39.07;99772.25;4485805;31;33288;-80
2023/06/03 07:46:50;;;;;;;;;;;;;;;22.23;40.15;99775.62;4492082;31;34017;-80
2023/06/03 07:49:20;;;;;;;;;;;;;;;22.36;40.69;99776.56;4484552;31;34002;-79
2023/06/03 07:51:49;;;;;;;;;;;;;;;22.18;42.45;99772.37;4492738;31;34659;-78
2023/06/03 07:54:22;;;;;;;;;;;;;;;22.09;42.33;99773.75;4497380;31;34014;-78
2023/06/03 07:56:52;;;;;;;;;;;;;;;22.46;41.73;99776.00;4489917;31;34205;-80
2023/06/03 07:59:23;;;;;;;;;;;;;;;22.43;41.02;99781.50;4490559;31;33905;-78
2023/06/03 08:01:53;;;;;;;;;;;;;;;22.69;40.64;99791.31;4488459;31;33858;-81
2023/06/03 08:04:28;;;;;;;;;;;;;;;22.44;41.46;99786.66;4497717;31;35236;-78
2023/06/03 08:06:59;;;;;;;;;;;;;;;22.92;39.75;99792.53;4489552;31;34716;-81
2023/06/03 08:09:33;;;;;;;;;;;;;;;23.09;39.29;99786.19;4490409;31;33190;-79
2023/06/03 08:12:03;;;;;;;;;;;;;;;23.08;39.22;99787.16;4490308;31;33506;-78
2023/06/03 08:14:33;;;;;;;;;;;;;;;22.76;40.53;99792.66;4488427;31;35350;-80
2023/06/03 08:17:02;;;;;;;;;;;;;;;22.64;40.26;99781.94;4491579;31;34043;-80
2023/06/03 08:19:31;;;;;;;;;;;;;;;22.65;39.94;99791.59;4486517;31;34058;-79
2023/06/03 08:22:00;;;;;;;;;;;;;;;22.50;40.30;99788.09;4482933;31;35056;-78
2023/06/03 08:24:28;;;;;;;;;;;;;;;22.17;40.73;99790.00;4484229;31;34994;-81
2023/06/03 08:26:58;;;;;;;;;;;;;;;22.67;40.35;99787.06;4486932;31;33857;-77
2023/06/03 08:29:27;;;;;;;;;;;;;;;22.98;40.18;99792.19;4481445;31;32515;-79
2023/06/03 08:31:56;;;;;;;;;;;;;;;22.90;39.07;99797.06;4489260;31;33723;-80
2023/06/03 08:34:25;;;;;;;;;;;;;;;23.12;38.73;99796.59;4487282;31;34873;-80
2023/06/03 08:36:54;;;;;;;;;;;;;;;23.23;38.40;99793.25;4485413;31;33259;-78
2023/06/03 08:39:22;;;;;;;;;;;;;;;22.61;40.99;99796.22;4490623;31;32836;-79
2023/06/03 08:41:51;;;;;;;;;;;;;;;22.67;41.29;99802.94;4482208;31;33818;-79
2023/06/03 08:44:22;;;;;;;;;;;;;;;22.87;39.88;99802.53;4484559;31;33873;-79
2023/06/03 08:46:55;;;;;;;;;;;;;;;22.73;40.28;99802.53;4489792;31;33952;-79
2023/06/03 08:49:28;;;;;;;;;;;;;;;23.21;38.41;99803.09;4496036;31;33239;-77
2023/06/03 08:51:56;;;;;;;;;;;;;;;22.98;38.93;99799.28;4484108;31;34509;-82
2023/06/03 08:54:29;;;;;;;;;;;;;;;23.29;37.52;99808.72;4491371;31;33922;-77
2023/06/03 08:57:00;;;;;;;;;;;;;;;22.83;37.76;99813.41;4487530;31;34414;-78
2023/06/03 08:59:31;;;;;;;;;;;;;;;22.66;39.26;99810.00;4476397;31;33833;-79
2023/06/03 09:01:59;;;;;;;;;;;;;;;22.30;39.53;99802.50;4486087;31;36302;-78
2023/06/03 09:04:28;;;;;;;;;;;;;;;22.75;37.72;99805.94;4480570;31;34135;-79
2023/06/03 09:06:57;;;;;;;;;;;;;;;23.10;39.73;99802.91;4481595;31;34056;-78
2023/06/03 09:09:25;;;;;;;;;;;;;;;23.69;39.42;99800.88;4482847;31;33836;-78
2023/06/03 09:11:54;;;;;;;;;;;;;;;23.94;38.80;99804.56;4488469;31;34615;-79
2023/06/03 09:14:23;;;;;;;;;;;;;;;24.11;39.27;99803.44;4479170;31;34257;-78
2023/06/03 09:16:53;;;;;;;;;;;;;;;24.35;37.52;99808.88;4478391;31;34800;-79
2023/06/03 09:19:22;;;;;;;;;;;;;;;24.56;37.04;99807.41;4479142;31;32463;-80
2023/06/03 09:21:51;;;;;;;;;;;;;;;24.24;35.30;99812.25;4477447;31;34185;-79
2023/06/03 09:24:22;;;;;;;;;;;;;;;24.20;36.10;99806.31;4484476;31;34890;-78
2023/06/03 09:26:51;;;;;;;;;;;;;;;24.06;36.33;99806.38;4479709;31;34157;-79
2023/06/03 09:29:20;;;;;;;;;;;;;;;23.76;37.87;99807.50;4479807;31;32951;-79
2023/06/03 09:31:49;;;;;;;;;;;;;;;24.07;37.00;99813.41;4476756;31;34777;-78
2023/06/03 09:34:22;;;;;;;;;;;;;;;23.80;36.93;99805.47;4485349;31;34309;-78
2023/06/03 09:36:50;;;;;;;;;;;;;;;24.26;36.05;99805.06;4479163;31;33776;-79
2023/06/03 09:39:31;;;;;;;;;;;;;;;24.06;36.19;99809.87;4476787;31;33068;-79
2023/06/03 09:42:00;;;;;;;;;;;;;;;24.12;36.14;99808.63;4482031;31;34098;-78
2023/06/03 09:44:39;;;;;;;;;;;;;;;23.55;37.76;99814.16;4486993;31;34827;-78
2023/06/03 09:47:08;;;;;;;;;;;;;;;23.72;37.54;99807.75;4489020;31;33709;-78
2023/06/03 09:49:39;;;;;;;;;;;;;;;23.13;39.82;99808.88;4480016;31;33504;-78
2023/06/03 09:52:11;;;;;;;;;;;;;;;23.52;37.83;99807.25;4480868;31;34353;-79
2023/06/03 09:54:41;;;;;;;;;;;;;;;23.54;37.93;99809.81;4480605;31;33353;-78
2023/06/03 09:57:11;;;;;;;;;;;;;;;22.96;39.12;99809.06;4493137;31;33572;-80
2023/06/03 09:59:41;;;;;;;;;;;;;;;23.15;39.47;99804.34;4492760;31;33024;-80
2023/06/03 10:02:11;;;;;;;;;;;;;;;23.14;40.00;99804.44;4485393;31;33834;-79
2023/06/03 10:04:44;;;;;;;;;;;;;;;23.90;37.31;99805.75;4481314;31;34713;-79
2023/06/03 10:07:13;;;;;;;;;;;;;;;23.84;37.86;99810.47;4480808;31;31939;-80
2023/06/03 10:09:44;;;;;;;;;;;;;;;24.16;36.77;99803.97;4486398;31;33782;-80
2023/06/03 10:12:13;;;;;;;;;;;;;;;23.68;39.32;99807.12;4481299;31;33201;-79
2023/06/03 10:14:46;;;;;;;;;;;;;;;23.59;38.59;99797.13;4481954;31;35072;-78
2023/06/03 10:17:16;;;;;;;;;;;;;;;24.30;37.06;99790.63;4476650;31;34277;-79
2023/06/03 10:19:46;;;;;;;;;;;;;;;24.54;35.69;99796.06;4476303;31;33964;-79
2023/06/03 10:22:17;;;;;;;;;;;;;;;24.84;36.51;99794.84;4483579;31;33181;-79
2023/06/03 10:24:47;;;;;;;;;;;;;;;24.52;36.81;99797.13;4476186;31;33230;-79
2023/06/03 10:27:16;;;;;;;;;;;;;;;25.07;35.89;99794.06;4481956;31;33604;-79
2023/06/03 10:29:45;;;;;;;;;;;;;;;25.10;36.38;99800.97;4491017;31;33746;-79
2023/06/03 10:32:16;;;;;;;;;;;;;;;24.37;35.31;99794.53;4495883;31;34060;-78
2023/06/03 10:34:47;;;;;;;;;;;;;;;25.23;33.92;99796.50;4483140;31;34435;-78
2023/06/03 10:37:16;;;;;;;;;;;;;;;25.73;33.66;99791.94;4475888;31;35527;-81
2023/06/03 10:39:45;;;;;;;;;;;;;;;25.33;33.88;99796.69;4475848;31;33454;-81
2023/06/03 10:42:14;;;;;;;;;;;;;;;23.98;35.95;99800.75;4478116;31;33777;-81
2023/06/03 10:44:43;;;;;;;;;;;;;;;24.46;35.90;99793.94;4483136;31;35128;-79
2023/06/03 10:47:13;;;;;;;;;;;;;;;24.31;36.37;99792.34;4475755;31;34193;-80
2023/06/03 10:49:43;;;;;;;;;;;;;;;24.03;35.98;99796.00;4475520;31;33421;-79
2023/06/03 10:52:36;;;;;;;;;;;;;;;24.17;36.47;99795.06;4475496;31;33638;-81
2023/06/03 10:55:09;;;;;;;;;;;;;;;24.34;35.67;99791.28;4474988;31;35074;-80
2023/06/03 10:57:39;;;;;;;;;;;;;;;23.84;36.51;99791.91;4497088;31;33680;-79
2023/06/03 11:00:09;;;;;;;;;;;;;;;24.50;35.98;99794.59;4491725;31;34341;-79
2023/06/03 11:03:02;;;;;;;;;;;;;;;23.56;37.13;99798.19;4491789;31;34223;-79
2023/06/03 11:05:31;;;;;;;;;;;;;;;23.78;37.59;99794.16;4472346;31;34355;-81
2023/06/03 11:08:00;;;;;;;;;;;;;;;24.43;35.04;99795.94;4490605;31;34344;-80
2023/06/03 11:10:43;;;;;;;;;;;;;;;24.78;35.00;99796.16;4497027;31;32768;-78
2023/06/03 11:13:12;;;;;;;;;;;;;;;24.48;34.63;99796.50;4479501;31;36123;-80
2023/06/03 11:15:59;;;;;;;;;;;;;;;24.60;35.70;99793.00;4475192;31;34596;-81
2023/06/03 11:18:29;;;;;;;;;;;;;;;25.16;33.72;99787.25;4474091;31;33879;-79
2023/06/03 11:20:58;;;;;;;;;;;;;;;25.09;33.43;99788.66;4480469;31;33414;-80
2023/06/03 11:23:42;;;;;;;;;;;;;;;25.06;33.22;99788.91;4482593;31;34611;-78
2023/06/03 11:26:30;;;;;;;;;;;;;;;24.75;34.34;99787.56;4481597;31;33733;-80
2023/06/03 11:28:59;;;;;;;;;;;;;;;24.70;35.17;99787.91;4479179;31;34542;-78
2023/06/03 11:31:29;;;;;;;;;;;;;;;25.44;33.84;99787.91;4481145;31;35432;-79
2023/06/03 11:34:16;;;;;;;;;;;;;;;25.30;32.10;99788.97;4480213;31;33872;-79
2023/06/03 11:36:48;;;;;;;;;;;;;;;25.08;32.86;99790.47;4487089;31;33136;-79
2023/06/03 11:39:17;;;;;;;;;;;;;;;25.22;33.73;99784.19;4484039;31;33386;-78
2023/06/03 11:42:08;;;;;;;;;;;;;;;25.93;32.70;99789.63;4480338;31;34293;-79
2023/06/03 11:44:39;;;;;;;;;;;;;;;26.04;30.82;99781.66;4485806;31;33821;-81
2023/06/03 11:47:08;;;;;;;;;;;;;;;26.00;31.92;99774.03;4477661;31;34982;-78
2023/06/03 11:49:38;;;;;;;;;;;;;;;26.10;30.73;99780.37;4488655;31;34152;-80
2023/06/03 11:52:09;;;;;;;;;;;;;;;26.07;30.65;99780.59;4481399;31;33230;-79
2023/06/03 11:54:39;;;;;;;;;;;;;;;25.93;30.47;99771.87;4482444;31;33134;-78
2023/06/03 11:57:09;;;;;;;;;;;;;;;25.11;32.33;99773.47;4487622;31;33946;-79
2023/06/03 11:59:41;;;;;;;;;;;;;;;25.08;32.41;99773.69;4473287;31;33408;-79
2023/06/03 12:02:10;;;;;;;;;;;;;;;25.79;32.12;99769.38;4479489;31;32386;-79
2023/06/03 12:04:39;;;;;;;;;;;;;;;25.84;30.69;99761.91;4482609;31;33650;-79
2023/06/03 12:07:11;;;;;;;;;;;;;;;26.29;30.50;99759.38;4471127;31;34305;-81
2023/06/03 12:09:41;;;;;;;;;;;;;;;26.66;29.29;99769.81;4478598;31;35000;-79
2023/06/03 12:12:11;;;;;;;;;;;;;;;26.90;29.02;99758.19;4486388;31;34210;-80
2023/06/03 12:14:44;;;;;;;;;;;;;;;27.06;27.75;99761.31;4490004;31;33778;-80
2023/06/03 12:17:14;;;;;;;;;;;;;;;26.01;30.33;99768.62;4470353;31;33909;-81
2023/06/03 12:19:44;;;;;;;;;;;;;;;26.76;28.19;99761.97;4476990;31;34482;-80
2023/06/03 12:22:13;;;;;;;;;;;;;;;26.14;29.51;99766.72;4478500;31;33295;-78
2023/06/03 12:24:42;;;;;;;;;;;;;;;26.24;29.73;99755.38;4485021;31;34189;-78
2023/06/03 12:27:15;;;;;;;;;;;;;;;26.16;30.02;99755.97;4476510;31;34007;-80
2023/06/03 12:29:47;;;;;;;;;;;;;;;26.52;29.92;99752.25;4484855;31;34319;-78
2023/06/03 12:32:16;;;;;;;;;;;;;;;25.98;30.79;99749.41;4485642;31;32927;-80
2023/06/03 12:34:45;;;;;;;;;;;;;;;25.29;31.61;99750.91;4475757;31;34657;-79
2023/06/03 12:37:25;;;;;;;;;;;;;;;25.96;30.22;99755.69;4441543;31;1217735;-80
2023/06/03 12:39:53;;;;;;;;;;;;;;;26.83;27.85;99749.00;4476416;31;33460;-79
2023/06/03 12:42:23;;;;;;;;;;;;;;;27.01;27.63;99750.19;4483106;31;32763;-79
2023/06/03 12:44:53;;;;;;;;;;;;;;;26.94;27.46;99748.97;4477724;31;34036;-79
2023/06/03 12:47:22;;;;;;;;;;;;;;;26.80;28.10;99753.59;4485362;31;33194;-80
2023/06/03 12:50:03;;;;;;;;;;;;;;;27.41;27.45;99737.16;4480468;31;34139;-81
2023/06/03 12:52:34;;;;;;;;;;;;;;;27.63;27.55;99735.38;4482504;31;32692;-81
2023/06/03 12:55:05;;;;;;;;;;;;;;;27.99;27.60;99738.59;4477550;31;34434;-79
2023/06/03 12:57:34;;;;;;;;;;;;;;;27.91;27.06;99731.25;4480404;31;33338;-81
2023/06/03 13:00:09;;;;;;;;;;;;;;;27.18;27.88;99738.16;4484044;31;34677;-81
2023/06/03 13:02:38;;;;;;;;;;;;;;;27.21;27.60;99730.81;4479152;31;33789;-81
2023/06/03 13:05:10;;;;;;;;;;;;;;;27.23;28.21;99738.66;4482473;31;33531;-80